WZZ4D1 EKCH-EHAM
Flight info
| Callsign | WZZ4D1 |
|---|---|
| Flight time | 1h 1m |
| Altitude | 36000 |
| Route | LANGO M611 ALASA DCT WANZA N872 KUBAT T200 BLUFA |
| Aircraft | A20N/M-V/N |
Departure
| Time | 2026-05-04 14:19 |
|---|---|
| Airport | Copenhagen Kastrup Airport (EKCH) |
Arrival
| Time | 2026-05-04 15:21 |
|---|---|
| Airport | Amsterdam Airport Schiphol (EHAM) |
| Time | Latitude | Longitude | Altitude | Speed | Heading |
|---|---|---|---|---|---|
| 2026-05-04 13:59 | 55.62515 | 12.65474 | 18 ft | 0 kts | 25° |
| 2026-05-04 14:09 | 55.62496 | 12.65456 | 19 ft | 2 kts | 47° |
| 2026-05-04 14:09 | 55.62487 | 12.65434 | 19 ft | 2 kts | 66° |
| 2026-05-04 14:10 | 55.62485 | 12.65382 | 18 ft | 2 kts | 107° |
| 2026-05-04 14:10 | 55.62491 | 12.65358 | 18 ft | 2 kts | 127° |
| 2026-05-04 14:10 | 55.62501 | 12.65339 | 19 ft | 2 kts | 147° |
| 2026-05-04 14:10 | 55.62515 | 12.65328 | 19 ft | 2 kts | 168° |
| 2026-05-04 14:11 | 55.62524 | 12.65326 | 19 ft | 1 kts | 180° |
| 2026-05-04 14:11 | 55.62530 | 12.65326 | 18 ft | 0 kts | 181° |
| 2026-05-04 14:13 | 55.62514 | 12.65326 | 18 ft | 5 kts | 181° |
| 2026-05-04 14:13 | 55.62448 | 12.65302 | 18 ft | 8 kts | 232° |
| 2026-05-04 14:13 | 55.62419 | 12.65215 | 18 ft | 8 kts | 206° |
| 2026-05-04 14:13 | 55.62356 | 12.65204 | 18 ft | 9 kts | 179° |
| 2026-05-04 14:14 | 55.62287 | 12.65178 | 18 ft | 10 kts | 234° |
| 2026-05-04 14:14 | 55.62324 | 12.64944 | 17 ft | 11 kts | 304° |
| 2026-05-04 14:14 | 55.62347 | 12.64802 | 15 ft | 13 kts | 248° |
| 2026-05-04 14:15 | 55.62307 | 12.64635 | 15 ft | 0 kts | 246° |
| 2026-05-04 14:16 | 55.62306 | 12.64632 | 15 ft | 0 kts | 246° |
| 2026-05-04 14:16 | 55.62287 | 12.64555 | 15 ft | 13 kts | 247° |
| 2026-05-04 14:17 | 55.62146 | 12.64300 | 15 ft | 19 kts | 205° |
| 2026-05-04 14:17 | 55.62022 | 12.64193 | 17 ft | 19 kts | 205° |
| 2026-05-04 14:17 | 55.61790 | 12.64073 | 20 ft | 12 kts | 177° |
| 2026-05-04 14:18 | 55.61770 | 12.64075 | 20 ft | 0 kts | 176° |
| 2026-05-04 14:18 | 55.61745 | 12.64078 | 20 ft | 6 kts | 177° |
| 2026-05-04 14:19 | 55.61579 | 12.64000 | 20 ft | 33 kts | 223° |
| 2026-05-04 14:19 | 55.61187 | 12.63396 | 19 ft | 112 kts | 221° |
| 2026-05-04 14:19 | 55.60447 | 12.62283 | 220 ft | 155 kts | 222° |
| 2026-05-04 14:19 | 55.59602 | 12.61101 | 940 ft | 158 kts | 226° |
| 2026-05-04 14:20 | 55.58808 | 12.59860 | 1766 ft | 156 kts | 229° |
| 2026-05-04 14:20 | 55.57983 | 12.58535 | 2337 ft | 169 kts | 229° |
| 2026-05-04 14:20 | 55.57082 | 12.57094 | 2849 ft | 185 kts | 228° |
| 2026-05-04 14:21 | 55.55349 | 12.53307 | 3933 ft | 215 kts | 246° |
| 2026-05-04 14:21 | 55.54670 | 12.50821 | 4445 ft | 236 kts | 248° |
| 2026-05-04 14:21 | 55.53856 | 12.48228 | 5119 ft | 253 kts | 243° |
| 2026-05-04 14:21 | 55.52949 | 12.45557 | 6138 ft | 257 kts | 242° |
| 2026-05-04 14:22 | 55.52036 | 12.42916 | 7213 ft | 258 kts | 242° |
| 2026-05-04 14:22 | 55.51099 | 12.40230 | 8200 ft | 260 kts | 242° |
| 2026-05-04 14:22 | 55.50165 | 12.37562 | 9198 ft | 262 kts | 242° |
| 2026-05-04 14:22 | 55.49236 | 12.34825 | 10196 ft | 263 kts | 245° |
| 2026-05-04 14:23 | 55.47776 | 12.28633 | 11496 ft | 291 kts | 251° |
| 2026-05-04 14:23 | 55.47042 | 12.25217 | 11958 ft | 310 kts | 251° |
| 2026-05-04 14:23 | 55.46266 | 12.21562 | 12403 ft | 328 kts | 251° |
| 2026-05-04 14:24 | 55.45456 | 12.17734 | 12787 ft | 346 kts | 251° |
| 2026-05-04 14:24 | 55.44598 | 12.13657 | 13096 ft | 364 kts | 251° |
| 2026-05-04 14:24 | 55.43706 | 12.09410 | 13609 ft | 375 kts | 251° |
| 2026-05-04 14:24 | 55.42652 | 12.05247 | 14301 ft | 382 kts | 242° |
| 2026-05-04 14:25 | 55.41177 | 12.01352 | 15045 ft | 386 kts | 237° |
| 2026-05-04 14:25 | 55.38023 | 11.93655 | 16441 ft | 393 kts | 237° |
| 2026-05-04 14:25 | 55.36432 | 11.89724 | 17095 ft | 396 kts | 237° |
| 2026-05-04 14:26 | 55.34861 | 11.85803 | 17733 ft | 399 kts | 237° |
| 2026-05-04 14:26 | 55.33261 | 11.81789 | 18376 ft | 402 kts | 237° |
| 2026-05-04 14:26 | 55.31657 | 11.77749 | 19011 ft | 405 kts | 237° |
| 2026-05-04 14:26 | 55.30064 | 11.73729 | 19586 ft | 408 kts | 237° |
| 2026-05-04 14:27 | 55.28445 | 11.69644 | 20155 ft | 411 kts | 237° |
| 2026-05-04 14:27 | 55.26801 | 11.65500 | 20701 ft | 415 kts | 237° |
| 2026-05-04 14:27 | 55.25159 | 11.61366 | 21235 ft | 418 kts | 237° |
| 2026-05-04 14:27 | 55.23505 | 11.57202 | 21757 ft | 421 kts | 237° |
| 2026-05-04 14:28 | 55.21830 | 11.52995 | 22256 ft | 424 kts | 238° |
| 2026-05-04 14:28 | 55.20140 | 11.48756 | 22755 ft | 426 kts | 237° |
| 2026-05-04 14:28 | 55.18462 | 11.44553 | 23204 ft | 429 kts | 238° |
| 2026-05-04 14:28 | 55.16752 | 11.40278 | 23647 ft | 432 kts | 237° |
| 2026-05-04 14:29 | 55.13296 | 11.31663 | 24683 ft | 431 kts | 237° |
| 2026-05-04 14:29 | 55.09890 | 11.23200 | 25873 ft | 426 kts | 237° |
| 2026-05-04 14:30 | 55.08197 | 11.18999 | 26420 ft | 425 kts | 237° |
| 2026-05-04 14:30 | 55.06504 | 11.14808 | 26948 ft | 423 kts | 237° |
| 2026-05-04 14:30 | 55.03144 | 11.06502 | 28011 ft | 420 kts | 237° |
| 2026-05-04 14:31 | 55.01473 | 11.02379 | 28538 ft | 418 kts | 237° |
| 2026-05-04 14:31 | 54.98166 | 10.94158 | 29638 ft | 412 kts | 238° |
| 2026-05-04 14:32 | 54.95368 | 10.85588 | 30590 ft | 408 kts | 245° |
| 2026-05-04 14:32 | 54.94224 | 10.81073 | 31027 ft | 406 kts | 249° |
| 2026-05-04 14:32 | 54.93275 | 10.76518 | 31425 ft | 406 kts | 252° |
| 2026-05-04 14:32 | 54.92494 | 10.71834 | 31790 ft | 406 kts | 255° |
| 2026-05-04 14:33 | 54.91773 | 10.67117 | 32143 ft | 406 kts | 255° |
| 2026-05-04 14:33 | 54.91051 | 10.62372 | 32474 ft | 407 kts | 255° |
| 2026-05-04 14:33 | 54.90333 | 10.57633 | 32797 ft | 407 kts | 256° |
| 2026-05-04 14:33 | 54.89610 | 10.52878 | 33119 ft | 408 kts | 256° |
| 2026-05-04 14:34 | 54.88892 | 10.48149 | 33450 ft | 407 kts | 256° |
| 2026-05-04 14:34 | 54.88164 | 10.43381 | 33788 ft | 407 kts | 256° |
| 2026-05-04 14:34 | 54.87442 | 10.38651 | 34098 ft | 407 kts | 256° |
| 2026-05-04 14:34 | 54.86716 | 10.33909 | 34365 ft | 408 kts | 255° |
| 2026-05-04 14:35 | 54.85987 | 10.29169 | 34555 ft | 411 kts | 255° |
| 2026-05-04 14:35 | 54.85250 | 10.24386 | 34731 ft | 413 kts | 255° |
| 2026-05-04 14:35 | 54.84503 | 10.19561 | 34938 ft | 414 kts | 255° |
| 2026-05-04 14:35 | 54.83757 | 10.14757 | 35113 ft | 415 kts | 255° |
| 2026-05-04 14:36 | 54.83006 | 10.09930 | 35285 ft | 416 kts | 255° |
| 2026-05-04 14:36 | 54.82171 | 10.05160 | 35438 ft | 417 kts | 252° |
| 2026-05-04 14:36 | 54.81191 | 10.00464 | 35595 ft | 418 kts | 249° |
| 2026-05-04 14:36 | 54.80062 | 9.95824 | 35741 ft | 420 kts | 247° |
| 2026-05-04 14:37 | 54.78793 | 9.91279 | 35875 ft | 422 kts | 244° |
| 2026-05-04 14:37 | 54.75840 | 9.82495 | 35943 ft | 424 kts | 240° |
| 2026-05-04 14:38 | 54.72713 | 9.73879 | 35963 ft | 424 kts | 240° |
| 2026-05-04 14:38 | 54.69580 | 9.65278 | 35953 ft | 424 kts | 240° |
| 2026-05-04 14:39 | 54.66438 | 9.56694 | 35971 ft | 424 kts | 239° |
| 2026-05-04 14:39 | 54.63289 | 9.48122 | 35968 ft | 424 kts | 240° |
| 2026-05-04 14:40 | 54.58573 | 9.35349 | 35978 ft | 424 kts | 239° |
| 2026-05-04 14:40 | 54.55394 | 9.26773 | 35982 ft | 424 kts | 239° |
| 2026-05-04 14:41 | 54.52233 | 9.18276 | 35980 ft | 424 kts | 239° |
| 2026-05-04 14:42 | 54.45894 | 9.01318 | 35984 ft | 423 kts | 238° |
| 2026-05-04 14:42 | 54.42711 | 8.92850 | 35997 ft | 423 kts | 238° |
| 2026-05-04 14:43 | 54.39517 | 8.84382 | 35991 ft | 424 kts | 238° |
| 2026-05-04 14:43 | 54.36325 | 8.75948 | 35980 ft | 424 kts | 239° |
| 2026-05-04 14:44 | 54.33134 | 8.67545 | 35986 ft | 424 kts | 238° |
| 2026-05-04 14:44 | 54.29915 | 8.59093 | 35997 ft | 423 kts | 239° |
| 2026-05-04 14:45 | 54.26718 | 8.50736 | 35990 ft | 422 kts | 239° |
| 2026-05-04 14:45 | 54.23325 | 8.42581 | 35984 ft | 423 kts | 234° |
| 2026-05-04 14:46 | 54.19440 | 8.35036 | 35981 ft | 424 kts | 228° |
| 2026-05-04 14:46 | 54.15195 | 8.28062 | 35985 ft | 425 kts | 226° |
| 2026-05-04 14:47 | 54.10919 | 8.21102 | 35987 ft | 425 kts | 226° |
| 2026-05-04 14:47 | 54.06661 | 8.14212 | 35985 ft | 425 kts | 226° |
| 2026-05-04 14:48 | 54.02383 | 8.07321 | 35989 ft | 424 kts | 226° |
| 2026-05-04 14:48 | 53.98128 | 8.00487 | 35978 ft | 423 kts | 225° |
| 2026-05-04 14:49 | 53.93849 | 7.93641 | 35976 ft | 424 kts | 225° |
| 2026-05-04 14:49 | 53.89565 | 7.86810 | 35983 ft | 424 kts | 225° |
| 2026-05-04 14:50 | 53.85291 | 7.80012 | 35986 ft | 423 kts | 226° |
| 2026-05-04 14:50 | 53.80990 | 7.73190 | 35969 ft | 423 kts | 226° |
| 2026-05-04 14:51 | 53.76716 | 7.66432 | 35986 ft | 423 kts | 226° |
| 2026-05-04 14:51 | 53.72429 | 7.59670 | 35984 ft | 423 kts | 225° |
| 2026-05-04 14:52 | 53.68158 | 7.52955 | 36000 ft | 422 kts | 225° |
| 2026-05-04 14:52 | 53.63868 | 7.46232 | 35987 ft | 422 kts | 225° |
| 2026-05-04 14:53 | 53.59591 | 7.39544 | 35984 ft | 421 kts | 225° |
| 2026-05-04 14:53 | 53.55294 | 7.32849 | 36002 ft | 421 kts | 225° |
| 2026-05-04 14:54 | 53.51031 | 7.26225 | 35981 ft | 421 kts | 225° |
| 2026-05-04 14:54 | 53.46726 | 7.19552 | 36011 ft | 421 kts | 225° |
| 2026-05-04 14:55 | 53.42443 | 7.12934 | 35992 ft | 420 kts | 225° |
| 2026-05-04 14:55 | 53.38171 | 7.06350 | 35982 ft | 420 kts | 225° |
| 2026-05-04 14:56 | 53.33839 | 6.99756 | 36006 ft | 419 kts | 223° |
| 2026-05-04 14:56 | 53.29321 | 6.93645 | 35921 ft | 419 kts | 221° |
| 2026-05-04 14:57 | 53.27066 | 6.90621 | 35631 ft | 420 kts | 221° |
| 2026-05-04 14:57 | 53.24793 | 6.87580 | 35155 ft | 418 kts | 221° |
| 2026-05-04 14:57 | 53.22549 | 6.84585 | 34495 ft | 417 kts | 221° |
| 2026-05-04 14:57 | 53.20309 | 6.81601 | 33772 ft | 416 kts | 221° |
| 2026-05-04 14:58 | 53.18055 | 6.78604 | 33078 ft | 414 kts | 221° |
| 2026-05-04 14:58 | 53.15825 | 6.75644 | 32367 ft | 411 kts | 221° |
| 2026-05-04 14:58 | 53.13610 | 6.72706 | 31645 ft | 409 kts | 220° |
| 2026-05-04 14:58 | 53.11385 | 6.69761 | 30907 ft | 407 kts | 220° |
| 2026-05-04 14:59 | 53.09199 | 6.66874 | 30149 ft | 405 kts | 220° |
| 2026-05-04 14:59 | 53.07020 | 6.64001 | 29375 ft | 403 kts | 220° |
| 2026-05-04 14:59 | 53.02637 | 6.58232 | 27779 ft | 402 kts | 220° |
| 2026-05-04 15:00 | 53.00454 | 6.55362 | 26959 ft | 402 kts | 221° |
| 2026-05-04 15:00 | 52.98267 | 6.52492 | 26108 ft | 404 kts | 221° |
| 2026-05-04 15:00 | 52.96069 | 6.49612 | 25172 ft | 407 kts | 221° |
| 2026-05-04 15:01 | 52.91594 | 6.43754 | 23172 ft | 416 kts | 221° |
| 2026-05-04 15:01 | 52.89330 | 6.40792 | 22509 ft | 413 kts | 221° |
| 2026-05-04 15:01 | 52.87091 | 6.37817 | 21812 ft | 410 kts | 224° |
| 2026-05-04 15:01 | 52.85242 | 6.34335 | 21122 ft | 407 kts | 234° |
| 2026-05-04 15:02 | 52.83598 | 6.30488 | 20407 ft | 408 kts | 236° |
| 2026-05-04 15:02 | 52.82013 | 6.26682 | 19687 ft | 406 kts | 236° |
| 2026-05-04 15:02 | 52.80399 | 6.22855 | 18969 ft | 404 kts | 235° |
| 2026-05-04 15:02 | 52.78799 | 6.19123 | 18247 ft | 402 kts | 235° |
| 2026-05-04 15:03 | 52.77172 | 6.15375 | 17548 ft | 400 kts | 234° |
| 2026-05-04 15:03 | 52.75553 | 6.11683 | 16892 ft | 396 kts | 234° |
| 2026-05-04 15:03 | 52.73937 | 6.08018 | 16280 ft | 393 kts | 234° |
| 2026-05-04 15:03 | 52.72349 | 6.04428 | 15650 ft | 390 kts | 234° |
| 2026-05-04 15:04 | 52.70766 | 6.00860 | 14967 ft | 388 kts | 234° |
| 2026-05-04 15:04 | 52.69213 | 5.97274 | 14447 ft | 383 kts | 236° |
| 2026-05-04 15:04 | 52.67750 | 5.93628 | 14197 ft | 384 kts | 237° |
| 2026-05-04 15:04 | 52.66282 | 5.89915 | 13944 ft | 383 kts | 237° |
| 2026-05-04 15:05 | 52.64847 | 5.86298 | 13700 ft | 382 kts | 237° |
| 2026-05-04 15:05 | 52.63388 | 5.82640 | 13356 ft | 380 kts | 237° |
| 2026-05-04 15:05 | 52.61946 | 5.79036 | 12966 ft | 378 kts | 237° |
| 2026-05-04 15:05 | 52.60501 | 5.75438 | 12551 ft | 376 kts | 237° |
| 2026-05-04 15:06 | 52.59058 | 5.71855 | 12130 ft | 374 kts | 237° |
| 2026-05-04 15:06 | 52.57623 | 5.68301 | 11728 ft | 372 kts | 237° |
| 2026-05-04 15:06 | 52.56210 | 5.64805 | 11343 ft | 370 kts | 237° |
| 2026-05-04 15:07 | 52.53388 | 5.57841 | 10505 ft | 366 kts | 237° |
| 2026-05-04 15:07 | 52.51971 | 5.54354 | 10130 ft | 364 kts | 237° |
| 2026-05-04 15:07 | 52.50589 | 5.50956 | 9762 ft | 362 kts | 237° |
| 2026-05-04 15:07 | 52.49189 | 5.47522 | 9370 ft | 359 kts | 237° |
| 2026-05-04 15:08 | 52.47813 | 5.44151 | 8747 ft | 356 kts | 237° |
| 2026-05-04 15:08 | 52.46452 | 5.40820 | 8003 ft | 356 kts | 237° |
| 2026-05-04 15:08 | 52.45074 | 5.37449 | 7317 ft | 354 kts | 237° |
| 2026-05-04 15:08 | 52.43712 | 5.34126 | 6665 ft | 351 kts | 236° |
| 2026-05-04 15:09 | 52.42368 | 5.30849 | 6020 ft | 349 kts | 236° |
| 2026-05-04 15:09 | 52.41024 | 5.27578 | 5517 ft | 335 kts | 236° |
| 2026-05-04 15:09 | 52.39773 | 5.24536 | 5048 ft | 313 kts | 237° |
| 2026-05-04 15:10 | 52.37540 | 5.18960 | 4111 ft | 275 kts | 237° |
| 2026-05-04 15:10 | 52.36534 | 5.16437 | 3966 ft | 266 kts | 238° |
| 2026-05-04 15:10 | 52.34511 | 5.11375 | 3960 ft | 268 kts | 238° |
| 2026-05-04 15:11 | 52.33482 | 5.08808 | 3951 ft | 268 kts | 238° |
| 2026-05-04 15:11 | 52.32457 | 5.06256 | 3932 ft | 269 kts | 237° |
| 2026-05-04 15:11 | 52.31424 | 5.03685 | 3931 ft | 269 kts | 238° |
| 2026-05-04 15:11 | 52.30403 | 5.01145 | 3949 ft | 269 kts | 238° |
| 2026-05-04 15:12 | 52.29368 | 4.98572 | 3951 ft | 268 kts | 238° |
| 2026-05-04 15:12 | 52.28356 | 4.96054 | 3949 ft | 268 kts | 238° |
| 2026-05-04 15:12 | 52.27329 | 4.93509 | 3938 ft | 268 kts | 238° |
| 2026-05-04 15:12 | 52.26313 | 4.90993 | 3749 ft | 264 kts | 238° |
| 2026-05-04 15:13 | 52.25303 | 4.88495 | 3328 ft | 266 kts | 238° |
| 2026-05-04 15:13 | 52.24287 | 4.85984 | 2936 ft | 265 kts | 238° |
| 2026-05-04 15:13 | 52.23272 | 4.83488 | 2557 ft | 265 kts | 238° |
| 2026-05-04 15:13 | 52.22242 | 4.80968 | 2176 ft | 265 kts | 238° |
| 2026-05-04 15:14 | 52.21236 | 4.78513 | 1976 ft | 256 kts | 238° |
| 2026-05-04 15:14 | 52.20279 | 4.76179 | 1964 ft | 241 kts | 238° |
| 2026-05-04 15:14 | 52.19371 | 4.73971 | 1962 ft | 226 kts | 238° |
| 2026-05-04 15:14 | 52.18509 | 4.71872 | 1968 ft | 224 kts | 238° |
| 2026-05-04 15:15 | 52.17644 | 4.69761 | 1971 ft | 223 kts | 238° |
| 2026-05-04 15:15 | 52.16786 | 4.67665 | 1973 ft | 223 kts | 238° |
| 2026-05-04 15:15 | 52.15932 | 4.65570 | 1976 ft | 223 kts | 240° |
| 2026-05-04 15:16 | 52.15782 | 4.60892 | 1968 ft | 214 kts | 306° |
| 2026-05-04 15:16 | 52.16827 | 4.59253 | 1979 ft | 209 kts | 328° |
| 2026-05-04 15:16 | 52.19297 | 4.56853 | 1973 ft | 207 kts | 334° |
| 2026-05-04 15:17 | 52.20652 | 4.56172 | 1961 ft | 204 kts | 3° |
| 2026-05-04 15:17 | 52.23000 | 4.58507 | 1968 ft | 203 kts | 51° |
| 2026-05-04 15:17 | 52.23795 | 4.60333 | 1879 ft | 193 kts | 56° |
| 2026-05-04 15:18 | 52.24491 | 4.62133 | 1688 ft | 184 kts | 57° |
| 2026-05-04 15:18 | 52.25132 | 4.63840 | 1429 ft | 169 kts | 57° |
| 2026-05-04 15:18 | 52.25714 | 4.65380 | 1191 ft | 153 kts | 56° |
| 2026-05-04 15:19 | 52.26751 | 4.68088 | 792 ft | 134 kts | 56° |
| 2026-05-04 15:19 | 52.27245 | 4.69375 | 632 ft | 133 kts | 56° |
| 2026-05-04 15:19 | 52.28225 | 4.71930 | 291 ft | 132 kts | 55° |
| 2026-05-04 15:20 | 52.28699 | 4.73184 | 101 ft | 127 kts | 56° |
| 2026-05-04 15:20 | 52.29162 | 4.74382 | 3 ft | 117 kts | 56° |
| 2026-05-04 15:20 | 52.29531 | 4.75340 | -3 ft | 76 kts | 56° |
| 2026-05-04 15:20 | 52.29783 | 4.75986 | -3 ft | 59 kts | 57° |
| 2026-05-04 15:21 | 52.29961 | 4.76440 | -4 ft | 31 kts | 52° |
| 2026-05-04 15:21 | 52.30097 | 4.76600 | -2 ft | 22 kts | 26° |
| 2026-05-04 15:21 | 52.30168 | 4.76662 | -3 ft | 0 kts | 29° |
| 2026-05-04 15:22 | 52.30174 | 4.76667 | -3 ft | 5 kts | 29° |
| 2026-05-04 15:23 | 52.30233 | 4.76719 | -2 ft | 10 kts | 28° |
| 2026-05-04 15:23 | 52.30300 | 4.76744 | -1 ft | 9 kts | 345° |
| 2026-05-04 15:23 | 52.30366 | 4.76728 | 0 ft | 9 kts | 24° |
| 2026-05-04 15:23 | 52.30407 | 4.76815 | 0 ft | 10 kts | 60° |
| 2026-05-04 15:24 | 52.30516 | 4.76960 | 3 ft | 10 kts | 332° |
| 2026-05-04 15:24 | 52.30640 | 4.76874 | 7 ft | 8 kts | 30° |
| 2026-05-04 15:25 | 52.30677 | 4.76928 | 8 ft | 7 kts | 9° |
| 2026-05-04 15:25 | 52.30709 | 4.76952 | 8 ft | 0 kts | 40° |